sensor_id;sensor_type;location;lat;lon;timestamp;pressure;altitude;pressure_sealevel;temperature;humidity
61880;BME280;47817;52.798;27.544;2022-12-16T00:05:05;1023.6;;;-2.6;81.7
61880;BME280;47817;52.798;27.544;2022-12-16T00:09:29;1023.6;;;-2.6;81.6
61880;BME280;47817;52.798;27.544;2022-12-16T00:14:39;1023.6;;;-2.5;81.7
61880;BME280;47817;52.798;27.544;2022-12-16T00:19:39;1023.7;;;-2.5;81.7
61880;BME280;47817;52.798;27.544;2022-12-16T00:25:01;1023.8;;;-2.4;81.5
61880;BME280;47817;52.798;27.544;2022-12-16T00:30:03;1023.8;;;-2.3;81.2
61880;BME280;47817;52.798;27.544;2022-12-16T00:34:53;1023.9;;;-2.2;80.8
61880;BME280;47817;52.798;27.544;2022-12-16T00:39:51;1024.1;;;-2.1;80.7
61880;BME280;47817;52.798;27.544;2022-12-16T00:44:41;1024.1;;;-2;80.7
61880;BME280;47817;52.798;27.544;2022-12-16T00:50:01;1024.2;;;-2;81
61880;BME280;47817;52.798;27.544;2022-12-16T00:55:03;1024.1;;;-2;80
61880;BME280;47817;52.798;27.544;2022-12-16T00:59:39;1024.2;;;-2;79.7
61880;BME280;47817;52.798;27.544;2022-12-16T01:04:39;1024.3;;;-1.9;79.9
61880;BME280;47817;52.798;27.544;2022-12-16T01:09:21;1024.3;;;-1.8;79.6
61880;BME280;47817;52.798;27.544;2022-12-16T01:15:03;1024.2;;;-1.8;79.5
61880;BME280;47817;52.798;27.544;2022-12-16T01:20:05;1024.2;;;-1.8;79.6
61880;BME280;47817;52.798;27.544;2022-12-16T01:24:57;1024.2;;;-1.7;79.4
61880;BME280;47817;52.798;27.544;2022-12-16T01:29:57;1024.1;;;-1.7;79.2
61880;BME280;47817;52.798;27.544;2022-12-16T01:34:21;1024.1;;;-1.7;79.1
61880;BME280;47817;52.798;27.544;2022-12-16T01:40:05;1024.1;;;-1.7;79.3
61880;BME280;47817;52.798;27.544;2022-12-16T01:45:40;1024.1;;;-1.7;79.2
61880;BME280;47817;52.798;27.544;2022-12-16T01:49:38;1024.2;;;-1.7;78.8
61880;BME280;47817;52.798;27.544;2022-12-16T01:54:46;1024.3;;;-1.7;79.1
61880;BME280;47817;52.798;27.544;2022-12-16T01:59:21;1024.3;;;-1.7;78.8
61880;BME280;47817;52.798;27.544;2022-12-16T02:04:57;1024.2;;;-1.7;79
61880;BME280;47817;52.798;27.544;2022-12-16T02:10:07;1024.2;;;-1.7;79.5
61880;BME280;47817;52.798;27.544;2022-12-16T02:14:49;1024.2;;;-1.7;79.7
61880;BME280;47817;52.798;27.544;2022-12-16T02:20:04;1024.2;;;-1.7;79.7
61880;BME280;47817;52.798;27.544;2022-12-16T02:24:40;1024.2;;;-1.8;79.7
61880;BME280;47817;52.798;27.544;2022-12-16T02:30:17;1024.2;;;-1.9;79.8
61880;BME280;47817;52.798;27.544;2022-12-16T02:35:08;1024.2;;;-1.9;79.7
61880;BME280;47817;52.798;27.544;2022-12-16T02:39:33;1024.4;;;-1.9;79.7
61880;BME280;47817;52.798;27.544;2022-12-16T02:44:43;1024.4;;;-1.9;79.6
61880;BME280;47817;52.798;27.544;2022-12-16T02:49:45;1024.4;;;-1.9;79.8
61880;BME280;47817;52.798;27.544;2022-12-16T02:55:07;1024.4;;;-1.9;79.9
61880;BME280;47817;52.798;27.544;2022-12-16T03:00:05;1024.4;;;-2;80
61880;BME280;47817;52.798;27.544;2022-12-16T03:04:55;1024.5;;;-2;80
61880;BME280;47817;52.798;27.544;2022-12-16T03:09:57;1024.5;;;-2;80.1
61880;BME280;47817;52.798;27.544;2022-12-16T03:14:45;1024.3;;;-2;80.2
61880;BME280;47817;52.798;27.544;2022-12-16T03:20:07;1024.3;;;-2.1;80.3
61880;BME280;47817;52.798;27.544;2022-12-16T03:25:05;1024.3;;;-2;80.3
61880;BME280;47817;52.798;27.544;2022-12-16T03:29:23;1024.4;;;-2;80.3
61880;BME280;47817;52.798;27.544;2022-12-16T03:34:46;1024.4;;;-2;80.2
61880;BME280;47817;52.798;27.544;2022-12-16T03:39:46;1024.3;;;-2;80.3
61880;BME280;47817;52.798;27.544;2022-12-16T03:45:05;1024.3;;;-2;80.3
61880;BME280;47817;52.798;27.544;2022-12-16T03:50:05;1024.3;;;-1.9;80.3
61880;BME280;47817;52.798;27.544;2022-12-16T03:54:55;1024.3;;;-2;80
61880;BME280;47817;52.798;27.544;2022-12-16T03:59:55;1024.5;;;-2;80.2
61880;BME280;47817;52.798;27.544;2022-12-16T04:04:33;1024.5;;;-2;80.2
61880;BME280;47817;52.798;27.544;2022-12-16T04:09:57;1024.6;;;-2;80.1
61880;BME280;47817;52.798;27.544;2022-12-16T04:14:55;1024.6;;;-2;80.1
61880;BME280;47817;52.798;27.544;2022-12-16T04:19:21;1024.6;;;-2.1;80
61880;BME280;47817;52.798;27.544;2022-12-16T04:24:45;1024.6;;;-2.1;79.8
61880;BME280;47817;52.798;27.544;2022-12-16T04:29:53;1024.6;;;-2.1;79.7
61880;BME280;47817;52.798;27.544;2022-12-16T04:35:07;1024.6;;;-2.1;79.6
61880;BME280;47817;52.798;27.544;2022-12-16T04:39:21;1024.7;;;-2.1;79.3
61880;BME280;47817;52.798;27.544;2022-12-16T04:44:57;1024.8;;;-2.1;79.5
61880;BME280;47817;52.798;27.544;2022-12-16T04:49:29;1024.8;;;-2.2;79.7
61880;BME280;47817;52.798;27.544;2022-12-16T04:54:33;1024.9;;;-2.2;79.6
61880;BME280;47817;52.798;27.544;2022-12-16T04:59:57;1024.9;;;-2.2;79.6
61880;BME280;47817;52.798;27.544;2022-12-16T05:04:55;1024.8;;;-2.2;79.7
61880;BME280;47817;52.798;27.544;2022-12-16T05:09:33;1024.7;;;-2.2;79.9
61880;BME280;47817;52.798;27.544;2022-12-16T05:14:33;1024.7;;;-2.3;80.1
61880;BME280;47817;52.798;27.544;2022-12-16T05:20:05;1024.6;;;-2.3;79.9
61880;BME280;47817;52.798;27.544;2022-12-16T05:25:05;1024.6;;;-2.3;79.9
61880;BME280;47817;52.798;27.544;2022-12-16T05:29:21;1024.6;;;-2.3;79.7
61880;BME280;47817;52.798;27.544;2022-12-16T05:34:43;1024.6;;;-2.2;79.5
61880;BME280;47817;52.798;27.544;2022-12-16T05:39:35;1024.5;;;-2.3;79.6
61880;BME280;47817;52.798;27.544;2022-12-16T05:44:21;1024.4;;;-2.4;79.7
61880;BME280;47817;52.798;27.544;2022-12-16T05:49:45;1024.4;;;-2.5;80
61880;BME280;47817;52.798;27.544;2022-12-16T05:54:57;1024.3;;;-2.7;80.2
61880;BME280;47817;52.798;27.544;2022-12-16T05:59:21;1024.3;;;-2.8;80.4
61880;BME280;47817;52.798;27.544;2022-12-16T06:04:45;1024.3;;;-2.9;80.6
61880;BME280;47817;52.798;27.544;2022-12-16T06:10:07;1024.3;;;-2.9;80.6
61880;BME280;47817;52.798;27.544;2022-12-16T06:15:05;1024.4;;;-2.9;80.5
61880;BME280;47817;52.798;27.544;2022-12-16T06:19:31;1024.4;;;-2.9;80.7
61880;BME280;47817;52.798;27.544;2022-12-16T06:24:57;1024.4;;;-2.9;80.7
61880;BME280;47817;52.798;27.544;2022-12-16T06:29:45;1024.5;;;-2.8;80.7
61880;BME280;47817;52.798;27.544;2022-12-16T06:34:33;1024.5;;;-2.8;80.6
61880;BME280;47817;52.798;27.544;2022-12-16T06:39:55;1024.5;;;-2.7;80.4
61880;BME280;47817;52.798;27.544;2022-12-16T06:44:57;1024.6;;;-2.7;80.3
61880;BME280;47817;52.798;27.544;2022-12-16T06:49:21;1024.7;;;-2.5;80.1
61880;BME280;47817;52.798;27.544;2022-12-16T06:54:33;1024.8;;;-2.5;80.1
61880;BME280;47817;52.798;27.544;2022-12-16T07:00:05;1024.8;;;-2.5;80.1
61880;BME280;47817;52.798;27.544;2022-12-16T07:05:07;1024.9;;;-2.4;79.9
61880;BME280;47817;52.798;27.544;2022-12-16T07:09:33;1024.9;;;-2.3;79.8
61880;BME280;47817;52.798;27.544;2022-12-16T07:14:55;1025;;;-2.2;79.7
61880;BME280;47817;52.798;27.544;2022-12-16T07:19:31;1025.1;;;-2.1;79.8
61880;BME280;47817;52.798;27.544;2022-12-16T07:24:29;1025.2;;;-2;79.7
61880;BME280;47817;52.798;27.544;2022-12-16T07:29:57;1025.3;;;-1.8;79.6
61880;BME280;47817;52.798;27.544;2022-12-16T07:34:55;1025.4;;;-1.7;79.4
61880;BME280;47817;52.798;27.544;2022-12-16T07:39:33;1025.5;;;-1.7;79.4
61880;BME280;47817;52.798;27.544;2022-12-16T07:45:03;1025.5;;;-1.6;79.3
61880;BME280;47817;52.798;27.544;2022-12-16T07:49:53;1025.5;;;-1.4;79.1
61880;BME280;47817;52.798;27.544;2022-12-16T07:55:05;1025.4;;;-1.4;78.9
61880;BME280;47817;52.798;27.544;2022-12-16T07:59:21;1025.4;;;-1.3;78.9
61880;BME280;47817;52.798;27.544;2022-12-16T08:04:55;1025.3;;;-1.2;78.8
61880;BME280;47817;52.798;27.544;2022-12-16T08:09:43;1025.2;;;-1.1;78.7
61880;BME280;47817;52.798;27.544;2022-12-16T08:14:33;1025.2;;;-1;78.5
61880;BME280;47817;52.798;27.544;2022-12-16T08:19:55;1025.3;;;-1;78.4
61880;BME280;47817;52.798;27.544;2022-12-16T08:25:05;1025.5;;;-0.8;78
61880;BME280;47817;52.798;27.544;2022-12-16T08:29:31;1025.5;;;-0.5;77.3
61880;BME280;47817;52.798;27.544;2022-12-16T08:34:43;1025.5;;;-0.4;77
61880;BME280;47817;52.798;27.544;2022-12-16T08:39:45;1025.6;;;-0.3;76.7
61880;BME280;47817;52.798;27.544;2022-12-16T08:44:55;1025.6;;;-0.2;76.7
61880;BME280;47817;52.798;27.544;2022-12-16T08:49:31;1025.5;;;-0.2;76.6
61880;BME280;47817;52.798;27.544;2022-12-16T08:54:43;1025.4;;;0;76.1
61880;BME280;47817;52.798;27.544;2022-12-16T08:59:29;1025.3;;;0;76.4
61880;BME280;47817;52.798;27.544;2022-12-16T09:04:21;1025.3;;;-0.1;76.4
61880;BME280;47817;52.798;27.544;2022-12-16T09:10:05;1025.3;;;0;76
61880;BME280;47817;52.798;27.544;2022-12-16T09:15:07;1025.3;;;0.1;75.9
61880;BME280;47817;52.798;27.544;2022-12-16T09:19:45;1025.2;;;0.2;75.4
61880;BME280;47817;52.798;27.544;2022-12-16T09:24:31;1025;;;0.4;75.3
61880;BME280;47817;52.798;27.544;2022-12-16T09:29:57;1025;;;0.6;74.9
61880;BME280;47817;52.798;27.544;2022-12-16T09:35:07;1025;;;0.9;74.4
61880;BME280;47817;52.798;27.544;2022-12-16T09:39:41;1024.9;;;1.2;73.9
61880;BME280;47817;52.798;27.544;2022-12-16T09:44:47;1024.9;;;1.5;73.1
61880;BME280;47817;52.798;27.544;2022-12-16T09:49:24;1024.7;;;1.6;72
61880;BME280;47817;52.798;27.544;2022-12-16T09:54:33;1024.5;;;1.6;72
61880;BME280;47817;52.798;27.544;2022-12-16T10:00:06;1024.5;;;1.6;71.8
61880;BME280;47817;52.798;27.544;2022-12-16T10:05:08;1024.4;;;1.7;71.5
61880;BME280;47817;52.798;27.544;2022-12-16T10:09:23;1024.4;;;2;71.8
61880;BME280;47817;52.798;27.544;2022-12-16T10:14:33;1024.2;;;2.1;71.1
61880;BME280;47817;52.798;27.544;2022-12-16T10:19:57;1024.1;;;1.9;71
61880;BME280;47817;52.798;27.544;2022-12-16T10:24:56;1024;;;1.6;71.5
61880;BME280;47817;52.798;27.544;2022-12-16T10:29:43;1023.9;;;1.3;72.3
61880;BME280;47817;52.798;27.544;2022-12-16T10:34:33;1023.8;;;1.1;72.7
61880;BME280;47817;52.798;27.544;2022-12-16T10:39:43;1023.9;;;0.9;73.8
61880;BME280;47817;52.798;27.544;2022-12-16T10:44:22;1023.9;;;0.6;74.4
61880;BME280;47817;52.798;27.544;2022-12-16T10:50:10;1023.8;;;0.5;74.8
61880;BME280;47817;52.798;27.544;2022-12-16T10:54:57;1023.7;;;0.5;75.1
61880;BME280;47817;52.798;27.544;2022-12-16T11:00:07;1023.6;;;0.4;75.5
61880;BME280;47817;52.798;27.544;2022-12-16T11:04:43;1023.5;;;0.4;75.8
61880;BME280;47817;52.798;27.544;2022-12-16T11:09:45;1023.3;;;0.4;75.8
61880;BME280;47817;52.798;27.544;2022-12-16T11:14:55;1023.3;;;0.4;75.7
61880;BME280;47817;52.798;27.544;2022-12-16T11:19:21;1023.4;;;0.4;76.2
61880;BME280;47817;52.798;27.544;2022-12-16T11:24:21;1023.5;;;0.5;76.1
61880;BME280;47817;52.798;27.544;2022-12-16T11:29:53;1023.6;;;0.5;76.4
61880;BME280;47817;52.798;27.544;2022-12-16T11:34:33;1023.6;;;0.5;76.6
61880;BME280;47817;52.798;27.544;2022-12-16T11:40:10;1023.6;;;0.5;76.6
61880;BME280;47817;52.798;27.544;2022-12-16T11:45:10;1023.5;;;0.5;76.8
61880;BME280;47817;52.798;27.544;2022-12-16T11:49:45;1023.4;;;0.5;76.8
61880;BME280;47817;52.798;27.544;2022-12-16T11:54:44;1023.4;;;0.5;76.8
61880;BME280;47817;52.798;27.544;2022-12-16T11:59:55;1023.4;;;0.5;77.2
61880;BME280;47817;52.798;27.544;2022-12-16T12:04:55;1023.4;;;0.4;77.6
61880;BME280;47817;52.798;27.544;2022-12-16T12:09:22;1023.3;;;0.4;77.6
61880;BME280;47817;52.798;27.544;2022-12-16T12:15:10;1023.1;;;0.4;77.9
61880;BME280;47817;52.798;27.544;2022-12-16T12:19:46;1023.1;;;0.4;78.1
61880;BME280;47817;52.798;27.544;2022-12-16T12:24:22;1023.1;;;0.3;78.5
61880;BME280;47817;52.798;27.544;2022-12-16T12:30:06;1023;;;0.2;78.9
61880;BME280;47817;52.798;27.544;2022-12-16T12:35:09;1023.1;;;0.1;79.3
61880;BME280;47817;52.798;27.544;2022-12-16T12:39:44;1023;;;0.2;79.5
61880;BME280;47817;52.798;27.544;2022-12-16T12:44:47;1022.9;;;0.1;79.8
61880;BME280;47817;52.798;27.544;2022-12-16T12:50:06;1022.8;;;0.1;80.2
61880;BME280;47817;52.798;27.544;2022-12-16T12:54:58;1022.7;;;0;80.6
61880;BME280;47817;52.798;27.544;2022-12-16T12:59:39;1022.6;;;-0.1;80.9
61880;BME280;47817;52.798;27.544;2022-12-16T13:04:57;1022.5;;;-0.1;81
61880;BME280;47817;52.798;27.544;2022-12-16T13:11:10;1022.5;;;-0.2;81.3
61880;BME280;47817;52.798;27.544;2022-12-16T13:14:53;1022.4;;;-0.2;81.5
61880;BME280;47817;52.798;27.544;2022-12-16T13:20:32;1022.4;;;-0.3;81.9
61880;BME280;47817;52.798;27.544;2022-12-16T13:24:44;1022.3;;;-0.3;82.3
61880;BME280;47817;52.798;27.544;2022-12-16T13:29:50;1022.2;;;-0.4;82.6
61880;BME280;47817;52.798;27.544;2022-12-16T13:34:57;1022.2;;;-0.5;82.8
61880;BME280;47817;52.798;27.544;2022-12-16T13:39:59;1022.2;;;-0.5;82.9
61880;BME280;47817;52.798;27.544;2022-12-16T13:45:15;1022.2;;;-0.5;83.1
61880;BME280;47817;52.798;27.544;2022-12-16T13:49:38;1022.2;;;-0.5;83.2
61880;BME280;47817;52.798;27.544;2022-12-16T13:55:02;1022.1;;;-0.6;83.4
61880;BME280;47817;52.798;27.544;2022-12-16T13:59:47;1021.9;;;-0.7;83.5
61880;BME280;47817;52.798;27.544;2022-12-16T14:04:34;1021.9;;;-0.7;83.7
61880;BME280;47817;52.798;27.544;2022-12-16T14:10:18;1021.7;;;-0.7;83.9
61880;BME280;47817;52.798;27.544;2022-12-16T14:14:46;1021.6;;;-0.7;84.1
61880;BME280;47817;52.798;27.544;2022-12-16T14:19:48;1021.6;;;-0.8;84
61880;BME280;47817;52.798;27.544;2022-12-16T14:24:22;1021.6;;;-0.8;84.3
61880;BME280;47817;52.798;27.544;2022-12-16T14:29:57;1021.5;;;-0.8;84.5
61880;BME280;47817;52.798;27.544;2022-12-16T14:34:59;1021.5;;;-0.8;84.7
61880;BME280;47817;52.798;27.544;2022-12-16T14:39:22;1021.6;;;-0.8;84.9
61880;BME280;47817;52.798;27.544;2022-12-16T14:44:57;1021.6;;;-0.8;85.1
61880;BME280;47817;52.798;27.544;2022-12-16T14:49:55;1021.6;;;-0.8;85.3
61880;BME280;47817;52.798;27.544;2022-12-16T14:54:30;1021.4;;;-0.9;85.4
61880;BME280;47817;52.798;27.544;2022-12-16T15:00:10;1021.1;;;-0.9;85.5
61880;BME280;47817;52.798;27.544;2022-12-16T15:04:43;1021;;;-0.9;85.6
61880;BME280;47817;52.798;27.544;2022-12-16T15:09:30;1020.9;;;-0.9;85.7
61880;BME280;47817;52.798;27.544;2022-12-16T15:14:33;1021;;;-0.9;85.8
61880;BME280;47817;52.798;27.544;2022-12-16T15:19:55;1021;;;-0.9;85.8
61880;BME280;47817;52.798;27.544;2022-12-16T15:25:05;1021.1;;;-0.9;86.1
61880;BME280;47817;52.798;27.544;2022-12-16T15:29:25;1021.2;;;-0.9;86.4
61880;BME280;47817;52.798;27.544;2022-12-16T15:34:57;1021.3;;;-0.9;86.5
61880;BME280;47817;52.798;27.544;2022-12-16T15:39:55;1021.4;;;-0.8;86.6
61880;BME280;47817;52.798;27.544;2022-12-16T15:44:33;1021.5;;;-0.8;86.6
61880;BME280;47817;52.798;27.544;2022-12-16T15:50:09;1021.4;;;-0.8;86.7
61880;BME280;47817;52.798;27.544;2022-12-16T15:54:51;1021.3;;;-0.7;86.7
61880;BME280;47817;52.798;27.544;2022-12-16T15:59:51;1021.2;;;-0.7;86.8
61880;BME280;47817;52.798;27.544;2022-12-16T16:04:23;1021.1;;;-0.7;86.8
61880;BME280;47817;52.798;27.544;2022-12-16T16:10:01;1021;;;-0.7;86.9
61880;BME280;47817;52.798;27.544;2022-12-16T16:15:08;1020.9;;;-0.7;86.9
61880;BME280;47817;52.798;27.544;2022-12-16T16:19:22;1020.8;;;-0.7;86.9
61880;BME280;47817;52.798;27.544;2022-12-16T16:24:55;1020.8;;;-0.7;86.9
61880;BME280;47817;52.798;27.544;2022-12-16T16:29:55;1020.6;;;-0.7;87.1
61880;BME280;47817;52.798;27.544;2022-12-16T16:34:31;1020.5;;;-0.8;87.2
61880;BME280;47817;52.798;27.544;2022-12-16T16:40:08;1020.4;;;-0.8;87.3
61880;BME280;47817;52.798;27.544;2022-12-16T16:44:43;1020.2;;;-0.7;87.4
61880;BME280;47817;52.798;27.544;2022-12-16T16:49:46;1020.1;;;-0.7;87.5
61880;BME280;47817;52.798;27.544;2022-12-16T16:54:21;1020;;;-0.7;87.6
61880;BME280;47817;52.798;27.544;2022-12-16T16:59:55;1020.1;;;-0.7;87.6
61880;BME280;47817;52.798;27.544;2022-12-16T17:04:56;1020.1;;;-0.7;87.6
61880;BME280;47817;52.798;27.544;2022-12-16T17:09:31;1020.1;;;-0.8;87.7
61880;BME280;47817;52.798;27.544;2022-12-16T17:14:57;1020.1;;;-0.8;87.8
61880;BME280;47817;52.798;27.544;2022-12-16T17:19:57;1020.2;;;-0.8;87.9
61880;BME280;47817;52.798;27.544;2022-12-16T17:24:21;1020;;;-0.8;87.9
61880;BME280;47817;52.798;27.544;2022-12-16T17:30:08;1019.9;;;-0.9;88.1
61880;BME280;47817;52.798;27.544;2022-12-16T17:34:41;1020;;;-0.9;88.3
61880;BME280;47817;52.798;27.544;2022-12-16T17:39:43;1019.9;;;-0.8;88.4
61880;BME280;47817;52.798;27.544;2022-12-16T17:44:21;1019.9;;;-0.8;88.4
61880;BME280;47817;52.798;27.544;2022-12-16T17:50:07;1019.9;;;-0.8;88.4
61880;BME280;47817;52.798;27.544;2022-12-16T17:55:05;1019.9;;;-0.8;88.4
61880;BME280;47817;52.798;27.544;2022-12-16T17:59:35;1019.9;;;-0.8;88.4
61880;BME280;47817;52.798;27.544;2022-12-16T18:04:55;1019.8;;;-0.8;88.4
61880;BME280;47817;52.798;27.544;2022-12-16T18:09:56;1019.9;;;-0.8;88.5
61880;BME280;47817;52.798;27.544;2022-12-16T18:15:07;1019.7;;;-0.8;88.5
61880;BME280;47817;52.798;27.544;2022-12-16T18:20:05;1019.5;;;-0.8;88.6
61880;BME280;47817;52.798;27.544;2022-12-16T18:24:45;1019.5;;;-0.8;88.6
61880;BME280;47817;52.798;27.544;2022-12-16T18:29:21;1019.6;;;-0.8;88.5
61880;BME280;47817;52.798;27.544;2022-12-16T18:34:33;1019.7;;;-0.7;88.7
61880;BME280;47817;52.798;27.544;2022-12-16T18:39:53;1019.6;;;-0.7;88.8
61880;BME280;47817;52.798;27.544;2022-12-16T18:45:04;1019.6;;;-0.7;88.9
61880;BME280;47817;52.798;27.544;2022-12-16T18:49:33;1019.4;;;-0.7;89
61880;BME280;47817;52.798;27.544;2022-12-16T18:54:53;1019.2;;;-0.6;89.1
61880;BME280;47817;52.798;27.544;2022-12-16T18:59:53;1019.3;;;-0.6;89.2
61880;BME280;47817;52.798;27.544;2022-12-16T19:05:02;1019.1;;;-0.6;89.3
61880;BME280;47817;52.798;27.544;2022-12-16T19:10:01;1019.1;;;-0.6;89.3
61880;BME280;47817;52.798;27.544;2022-12-16T19:14:43;1019;;;-0.6;89.3
61880;BME280;47817;52.798;27.544;2022-12-16T19:19:45;1018.9;;;-0.6;89.3
61880;BME280;47817;52.798;27.544;2022-12-16T19:24:53;1019.1;;;-0.6;89.4
61880;BME280;47817;52.798;27.544;2022-12-16T19:30:06;1019.2;;;-0.6;89.2
61880;BME280;47817;52.798;27.544;2022-12-16T19:35:05;1019.1;;;-0.6;89.4
61880;BME280;47817;52.798;27.544;2022-12-16T19:39:21;1019.3;;;-0.6;89.5
61880;BME280;47817;52.798;27.544;2022-12-16T19:44:57;1019.4;;;-0.6;89.5
61880;BME280;47817;52.798;27.544;2022-12-16T19:49:43;1019.3;;;-0.6;89.5
61880;BME280;47817;52.798;27.544;2022-12-16T19:55:05;1019.3;;;-0.5;89.4
61880;BME280;47817;52.798;27.544;2022-12-16T20:00:08;1019.3;;;-0.5;89.4
61880;BME280;47817;52.798;27.544;2022-12-16T20:04:31;1019.3;;;-0.5;89.4
61880;BME280;47817;52.798;27.544;2022-12-16T20:09:43;1019.4;;;-0.5;89.3
61880;BME280;47817;52.798;27.544;2022-12-16T20:14:21;1019.4;;;-0.5;89.4
61880;BME280;47817;52.798;27.544;2022-12-16T20:20:05;1019.4;;;-0.5;89.4
61880;BME280;47817;52.798;27.544;2022-12-16T20:25:03;1019.5;;;-0.5;89.5
61880;BME280;47817;52.798;27.544;2022-12-16T20:29:33;1019.5;;;-0.4;89.4
61880;BME280;47817;52.798;27.544;2022-12-16T20:34:55;1019.5;;;-0.4;89.4
61880;BME280;47817;52.798;27.544;2022-12-16T20:39:57;1019.7;;;-0.4;89.5
61880;BME280;47817;52.798;27.544;2022-12-16T20:45:07;1019.7;;;-0.3;89.5
61880;BME280;47817;52.798;27.544;2022-12-16T20:50:09;1019.6;;;-0.3;89.4
61880;BME280;47817;52.798;27.544;2022-12-16T20:54:57;1019.6;;;-0.3;89.4
61880;BME280;47817;52.798;27.544;2022-12-16T20:59:43;1019.6;;;-0.2;89.4
61880;BME280;47817;52.798;27.544;2022-12-16T21:04:22;1019.6;;;-0.3;89.4
61880;BME280;47817;52.798;27.544;2022-12-16T21:10:07;1019.6;;;-0.2;89.4
61880;BME280;47817;52.798;27.544;2022-12-16T21:15:06;1019.4;;;-0.2;89.3
61880;BME280;47817;52.798;27.544;2022-12-16T21:19:21;1019.3;;;-0.2;89.3
61880;BME280;47817;52.798;27.544;2022-12-16T21:24:55;1019.3;;;-0.3;89.3
61880;BME280;47817;52.798;27.544;2022-12-16T21:29:55;1019.4;;;-0.3;89.2
61880;BME280;47817;52.798;27.544;2022-12-16T21:34:55;1019.6;;;-0.2;89.1
61880;BME280;47817;52.798;27.544;2022-12-16T21:40:04;1019.7;;;-0.2;89.3
61880;BME280;47817;52.798;27.544;2022-12-16T21:44:21;1019.6;;;-0.3;89.6
61880;BME280;47817;52.798;27.544;2022-12-16T21:49:43;1019.6;;;-0.3;89.7
61880;BME280;47817;52.798;27.544;2022-12-16T21:54:29;1019.6;;;-0.3;89.6
61880;BME280;47817;52.798;27.544;2022-12-16T21:59:41;1019.6;;;-0.3;89.5
61880;BME280;47817;52.798;27.544;2022-12-16T22:04:41;1019.6;;;-0.3;89.4
61880;BME280;47817;52.798;27.544;2022-12-16T22:09:21;1019.5;;;-0.4;89.4
61880;BME280;47817;52.798;27.544;2022-12-16T22:15:06;1019.5;;;-0.4;89.1
61880;BME280;47817;52.798;27.544;2022-12-16T22:19:51;1019.6;;;-0.3;89.1
61880;BME280;47817;52.798;27.544;2022-12-16T22:24:51;1019.6;;;-0.3;89.2
61880;BME280;47817;52.798;27.544;2022-12-16T22:29:21;1019.7;;;-0.3;89.4
61880;BME280;47817;52.798;27.544;2022-12-16T22:34:41;1019.7;;;-0.3;89.3
61880;BME280;47817;52.798;27.544;2022-12-16T22:39:49;1019.7;;;-0.3;89
61880;BME280;47817;52.798;27.544;2022-12-16T22:44:27;1019.6;;;-0.3;89.1
61880;BME280;47817;52.798;27.544;2022-12-16T22:49:21;1019.6;;;-0.3;88.9
61880;BME280;47817;52.798;27.544;2022-12-16T22:54:31;1019.5;;;-0.3;89.1
61880;BME280;47817;52.798;27.544;2022-12-16T22:59:29;1019.6;;;-0.3;89.2
61880;BME280;47817;52.798;27.544;2022-12-16T23:05:01;1019.6;;;-0.3;89.1
61880;BME280;47817;52.798;27.544;2022-12-16T23:09:53;1019.6;;;-0.3;89.2
61880;BME280;47817;52.798;27.544;2022-12-16T23:14:54;1019.6;;;-0.4;89.1
61880;BME280;47817;52.798;27.544;2022-12-16T23:19:41;1019.7;;;-0.4;89.1
61880;BME280;47817;52.798;27.544;2022-12-16T23:24:41;1019.7;;;-0.4;89.1
61880;BME280;47817;52.798;27.544;2022-12-16T23:30:01;1019.6;;;-0.4;88.9
61880;BME280;47817;52.798;27.544;2022-12-16T23:34:21;1019.7;;;-0.4;88.8
61880;BME280;47817;52.798;27.544;2022-12-16T23:39:39;1019.7;;;-0.4;88.7
61880;BME280;47817;52.798;27.544;2022-12-16T23:44:39;1019.7;;;-0.5;88.9
61880;BME280;47817;52.798;27.544;2022-12-16T23:49:41;1019.6;;;-0.5;89.1
61880;BME280;47817;52.798;27.544;2022-12-16T23:55:01;1019.9;;;-0.5;89.1
61880;BME280;47817;52.798;27.544;2022-12-16T23:59:43;1020.1;;;-0.5;89
